KSCR/SCR METAR and TAF weather

Enter ICAO airport designator
Station Type Date Time Source
KSCR METAR 2019/08/17 11:15 UTC NOAA

KSCR 171115Z AUTO 00000KT 10SM OVC002 22/22 A3002 RMK AO2 T02210221


Station Type Date Time Source
KSCR Decoded METAR 2019/08/17 11:15 UTC NOAA

Station name not available
Aug 17, 2019 - 07:15 AM EDT / 2019.08.17 1115 UTC
Wind: Calm:0
Visibility: 10 mile(s):0
Sky conditions: overcast
Temperature: 71.8 F (22.1 C)
Dew Point: 71.8 F (22.1 C)
Relative Humidity: 100%
Pressure (altimeter): 30.02 in. Hg (1016 hPa)
ob: KSCR 171115Z AUTO 00000KT 10SM OVC002 22/22 A3002 RMK AO2 T02210221
cycle: 11

Station Type Date Time Source
KSCR TAF UTC NOAA

Error!

Example: see airport list